首页
METAR-TAF:

METAR-TAF

机场 :

Le Luc, 法国

纬度: 43-23N, 经度: 006-23E, 海拔: 80米

当前天气观测

该预报发布于29分钟前的06:30 UTC
风速9节,风向
温度 20°C
湿度 68%
气压 1012 hPa
能见度10公里或以上
多云层高于4900英尺

METAR: LFMC 200630Z AUTO 10009KT 9999 BKN049 20/14 Q1012

时间: 08:59 (06:59 UTC)


TAF: 丢失

超过4000个机场的气象观测和天气预报(METAR&TAF报告)。

可查询的气象台以黄色和红色小点在地图上表示。

将鼠标移到小点上方,可查看气象台名称。

然后点击查看天气观测和预报。

如需切换地图:点击带黑十字的绿色按钮放大地图;点击带横线的绿色按钮缩小地图;或者点击绿色箭头查看邻近地区的地图。


METAR-TAF: